Messwerte Birmingham

Temperatur

Temperatur
°C
1576260000 12.00 12.00 8
1576263600 13.00 13.00 8
1576267200 14.00 14.00 9
1576270800 15.00 15.00 8
1576274400 16.00 16.00 9
1576278000 17.00 17.00 9
1576281600 18.00 18.00 9
1576285200 19.00 19.00 8
1576288800 20.00 20.00 8
1576292400 21.00 21.00 9
1576296000 22.00 22.00 9
1576299600 23.00 23.00 9
1576303200 0.00 0.00 9
1576306800 1.00 1.00 9
1576310400 2.00 2.00 9
1576314000 3.00 3.00 8
1576317600 4.00 4.00
1576321200 5.00 5.00 7
1576324800 6.00 6.00 7
1576328400 7.00 7.00
1576332000 8.00 8.00 7
1576335600 9.00 9.00 7
1576339200 10.00 10.00 8
1576342800 11.00 11.00 9

Aktuellste Messwerte

Wettercharakter
Wetter: recht sonnig
Temperatur
11 °C
Feuchtigkeit
65 %
Wind
10 km/hWindrichtung: Südwest
Luftdruck
1011 hPa
Messzeit: 14. Dezember 2019, 12.00Datenquelle: METAR

Weitere Messstationen in der Nähe

Messstation Temperatur Entfernung
Alabaster 11 °C 43 km
Gadsden 11 °C 78 km
Anniston 11 °C 82 km
Albertville 9.0 °C 86 km
Tuscaloosa 11 °C 89 km
Alexander City 11 °C 104 km
Huntsville 9 °C 120 km

Wind

Windrichtung Böen Mittelwind
° km/h km/h
1576260000 12.00 11.00 - 12.00 80° 5
1576263600 13.00 12.00 - 13.00 120° 10
1576267200 14.00 13.00 - 14.00 120° 5
1576270800 15.00 14.00 - 15.00 0
1576274400 16.00 15.00 - 16.00 0
1576278000 17.00 16.00 - 17.00 130° 5
1576281600 18.00 17.00 - 18.00 90° 5
1576285200 19.00 18.00 - 19.00 0
1576288800 20.00 19.00 - 20.00 0
1576292400 21.00 20.00 - 21.00 0
1576296000 22.00 21.00 - 22.00 0
1576299600 23.00 22.00 - 23.00 260° 10
1576303200 0.00 23.00 - 0.00 270° 10
1576306800 1.00 0.00 - 1.00 270° 15
1576310400 2.00 1.00 - 2.00 270° 10
1576314000 3.00 2.00 - 3.00 270° 10
1576317600 4.00 3.00 - 4.00
1576321200 5.00 4.00 - 5.00 270° 10
1576324800 6.00 5.00 - 6.00 270° 15
1576328400 7.00 6.00 - 7.00
1576332000 8.00 7.00 - 8.00 270° 15
1576335600 9.00 8.00 - 9.00 280° 15
1576339200 10.00 9.00 - 10.00 250° 20
1576342800 11.00 10.00 - 11.00 230° 15

Ihre Wetterstation

Fehlt Ihre Wetterstation auf unserem Portal?

Schreiben Sie an network@meteonews.ch

Klima

Wann ist es am wärmsten? Wann regnet es am wenigsten? Unsere Klimadaten geben Auskunft.